Terminal Aerodrome Forecast
Issued by NWS

Home | Current Version | Previous Version | Text Only | Print | Product List | Glossary On
Versions: 1 2 3 4 5 6 7 8 9 10 11 12 13
000
FTUS45 KTFX 231746
TAFHLN
TAF
KHLN 231746Z 2318/2418 22007KT P6SM FEW020 SCT250
      TEMPO 2320/2323 24015G35KT
     FM232300 24011KT P6SM SCT040 BKN090
      TEMPO 2401/2404 -SHRA BKN040
     FM240600 28013KT P6SM SCT050 BKN100
     FM241200 26010KT P6SM SCT060 BKN120=

USA.gov is the U.S. government's official web portal to all federal, state and local government web resources and services.